Time;durP1;ratioP1;P1;durP2;ratioP2;P2;SDS_P1;SDS_P2;PMS_P1;PMS_P2;Temp;Humidity;BMP_temperature;BMP_pressure;BME280_temperature;BME280_humidity;BME280_pressure;Samples;Min_cycle;Max_cycle;Signal;HPM_P1;HPM_P2
2021/01/26 00:01:19;;;;;;;2.80;2.50;;;;;;;-0.01;100.00;97524.35;1817618;79;21084;-56
2021/01/26 00:03:47;;;;;;;3.10;2.80;;;;;;;-0.03;100.00;97528.22;1818132;79;21428;-56
2021/01/26 00:06:14;;;;;;;3.00;2.70;;;;;;;-0.03;100.00;97529.94;1817953;79;21112;-56
2021/01/26 00:08:42;;;;;;;2.70;2.15;;;;;;;-0.03;100.00;97533.33;1818130;79;21084;-56
2021/01/26 00:11:10;;;;;;;3.08;2.47;;;;;;;-0.04;100.00;97528.26;1818031;79;21040;-57
2021/01/26 00:13:38;;;;;;;2.95;2.52;;;;;;;-0.06;100.00;97530.02;1818129;79;21148;-57
2021/01/26 00:16:05;;;;;;;2.55;2.12;;;;;;;-0.06;100.00;97526.18;1817977;79;21357;-57
2021/01/26 00:18:34;;;;;;;3.02;2.47;;;;;;;-0.06;100.00;97532.56;1818139;79;21585;-57
2021/01/26 00:21:06;;;;;;;3.15;2.80;;;;;;;-0.05;100.00;97539.35;1818045;79;21612;-57
2021/01/26 00:23:36;;;;;;;4.33;2.55;;;;;;;-0.05;100.00;97535.08;1768559;79;21151;-58
2021/01/26 00:26:04;;;;;;;3.15;2.83;;;;;;;-0.06;100.00;97542.78;1813191;79;21574;-58
2021/01/26 00:28:32;;;;;;;3.52;2.45;;;;;;;-0.07;100.00;97541.10;1818087;79;21442;-58
2021/01/26 00:30:59;;;;;;;2.50;2.30;;;;;;;-0.09;100.00;97535.16;1817997;79;21064;-58
2021/01/26 00:33:40;;;;;;;2.33;2.05;;;;;;;-0.08;100.00;97558.55;1819770;78;21037;-58
2021/01/26 00:36:10;;;;;;;2.50;2.25;;;;;;;-0.09;100.00;97548.77;1826409;78;21501;-58
2021/01/26 00:38:56;;;;;;;2.15;1.98;;;;;;;-0.10;100.00;97553.92;1817861;78;21058;-56
2021/01/26 00:41:24;;;;;;;2.35;2.00;;;;;;;-0.09;100.00;97554.32;1826355;78;21321;-56
2021/01/26 00:43:57;;;;;;;3.90;2.75;;;;;;;-0.08;100.00;97549.17;1819575;78;21155;-56
2021/01/26 00:46:25;;;;;;;2.95;2.62;;;;;;;-0.07;100.00;97555.16;1826393;78;21100;-57
2021/01/26 00:48:53;;;;;;;2.50;2.08;;;;;;;-0.08;100.00;97554.28;1819741;78;21576;-57
2021/01/26 00:51:21;;;;;;;2.70;2.50;;;;;;;-0.09;100.00;97569.64;1826312;78;21534;-57
2021/01/26 00:53:49;;;;;;;2.72;2.52;;;;;;;-0.09;100.00;97556.88;1819865;78;22390;-57
2021/01/26 00:56:17;;;;;;;2.72;2.52;;;;;;;-0.11;100.00;97571.39;1826044;78;21073;-57
2021/01/26 00:58:45;;;;;;;2.95;2.65;;;;;;;-0.11;100.00;97565.84;1819183;78;21105;-57
2021/01/26 01:01:14;;;;;;;3.47;2.85;;;;;;;-0.11;100.00;97565.02;1825646;78;21152;-57
2021/01/26 01:03:46;;;;;;;3.58;3.17;;;;;;;-0.11;100.00;97571.39;1819211;78;21108;-57
2021/01/26 01:06:15;;;;;;;3.75;3.00;;;;;;;-0.13;100.00;97568.04;1825812;78;21440;-57
2021/01/26 01:08:43;;;;;;;3.25;2.95;;;;;;;-0.14;100.00;97572.31;1819035;78;21171;-57
2021/01/26 01:11:11;;;;;;;3.15;2.77;;;;;;;-0.15;100.00;97569.75;1825656;78;21068;-58
2021/01/26 01:13:38;;;;;;;3.70;3.10;;;;;;;-0.14;100.00;97568.91;1819255;78;21524;-58
2021/01/26 01:16:06;;;;;;;3.72;3.12;;;;;;;-0.14;100.00;97580.41;1825799;78;21104;-59
2021/01/26 01:18:34;;;;;;;3.30;2.95;;;;;;;-0.15;100.00;97587.63;1819200;78;21553;-57
2021/01/26 01:21:02;;;;;;;4.37;3.90;;;;;;;-0.17;100.00;97579.17;1825680;78;21191;-57
2021/01/26 01:23:30;;;;;;;4.00;3.35;;;;;;;-0.17;100.00;97590.66;1819117;78;21136;-57
2021/01/26 01:25:59;;;;;;;3.87;3.25;;;;;;;-0.18;100.00;97596.20;1825800;78;21064;-57
2021/01/26 01:28:30;;;;;;;5.03;3.70;;;;;;;-0.20;100.00;97576.25;1819156;78;21168;-59
2021/01/26 01:30:57;;;;;;;4.08;3.67;;;;;;;-0.21;100.00;97588.62;1825821;78;22822;-59
2021/01/26 01:33:25;;;;;;;3.87;3.50;;;;;;;-0.20;100.00;97598.39;1807868;77;21112;-57
2021/01/26 01:35:53;;;;;;;4.60;4.00;;;;;;;-0.21;100.00;97605.66;1802791;79;21109;-57
2021/01/26 01:38:21;;;;;;;4.33;3.92;;;;;;;-0.22;100.00;97605.25;1783012;80;21081;-57
2021/01/26 01:40:52;;;;;;;4.45;4.03;;;;;;;-0.23;100.00;97612.04;1802923;79;21120;-57
2021/01/26 01:43:20;;;;;;;9.90;7.40;;;;;;;-0.23;100.00;97594.60;1783077;80;21416;-57
2021/01/26 01:45:54;;;;;;;6.00;5.00;;;;;;;-0.24;100.00;97610.36;1800014;79;21133;-60
2021/01/26 01:48:28;;;;;;;5.90;5.20;;;;;;;-0.23;100.00;97615.03;1760962;80;21160;-57
2021/01/26 01:51:10;;;;;;;5.22;4.47;;;;;;;-0.23;100.00;97622.25;1798877;79;21053;-57
2021/01/26 01:53:49;;;;;;;6.03;5.33;;;;;;;-0.22;100.00;97622.69;1783092;80;21133;-57
2021/01/26 01:56:42;;;;;;;6.03;5.25;;;;;;;-0.21;100.00;97618.42;1802922;79;21226;-60
2021/01/26 01:59:16;;;;;;;8.23;5.60;;;;;;;-0.21;100.00;97620.53;1782966;80;21061;-58
2021/01/26 02:01:43;;;;;;;7.25;5.90;;;;;;;-0.20;100.00;97621.38;1802593;79;21120;-57
2021/01/26 02:04:15;;;;;;;6.12;5.12;;;;;;;-0.23;100.00;97645.67;1782882;80;21766;-58
2021/01/26 02:06:44;;;;;;;7.35;5.22;;;;;;;-0.23;100.00;97620.14;1803029;79;21136;-58
2021/01/26 02:09:19;;;;;;;6.20;5.60;;;;;;;-0.23;100.00;97629.08;1782942;80;21203;-59
2021/01/26 02:12:09;;;;;;;6.47;5.85;;;;;;;-0.24;100.00;97629.95;1798761;79;21116;-58
2021/01/26 02:14:51;;;;;;;19.00;10.65;;;;;;;-0.25;100.00;97630.38;1783067;80;21054;-59
2021/01/26 02:17:47;;;;;;;6.95;5.78;;;;;;;-0.25;100.00;97644.43;1802979;79;21038;-59
2021/01/26 02:21:11;;;;;;;8.75;6.17;;;;;;;-0.26;100.00;97645.73;1802735;79;21097;-61
2021/01/26 02:24:16;;;;;;;7.30;5.58;;;;;;;-0.28;100.00;97645.77;1783014;80;21291;-61
2021/01/26 02:27:14;;;;;;;7.10;6.08;;;;;;;-0.30;100.00;97647.08;1802804;79;21668;-61
2021/01/26 02:29:58;;;;;;;7.92;6.33;;;;;;;-0.31;100.00;97650.92;1731388;81;21503;-61
2021/01/26 02:32:34;;;;;;;7.20;6.00;;;;;;;-0.32;100.00;97659.45;1785913;79;21064;-61
2021/01/26 02:35:35;;;;;;;7.33;5.95;;;;;;;-0.33;100.00;97659.88;1802289;79;21201;-63
2021/01/26 02:38:32;;;;;;;7.37;6.25;;;;;;;-0.36;100.00;97686.76;1782933;80;21367;-63
2021/01/26 02:41:24;;;;;;;9.05;6.83;;;;;;;-0.38;100.00;97668.08;1802827;79;21073;-62
2021/01/26 02:44:31;;;;;;;7.70;6.75;;;;;;;-0.39;100.00;97665.09;1797721;79;21053;-62
2021/01/26 02:47:15;;;;;;;;;;;;;;;-0.42;100.00;97671.54;1757438;81;21832;-62
2021/01/26 02:49:53;;;;;;;8.98;7.47;;;;;;;-0.44;100.00;97672.44;1783081;80;20264;-61
2021/01/26 02:52:45;;;;;;;8.43;7.25;;;;;;;-0.46;100.00;97690.31;1793526;79;21352;-61
2021/01/26 02:55:33;;;;;;;10.60;8.73;;;;;;;-0.48;100.00;97679.29;1802838;79;21601;-62
2021/01/26 02:59:07;;;;;;;9.65;8.03;;;;;;;-0.46;100.00;97680.09;1888446;76;28218;-84
2021/01/26 03:01:50;;;;;;;9.25;7.95;;;;;;;-0.51;100.00;97684.89;1860539;77;21148;-83
2021/01/26 03:04:26;;;;;;;9.35;8.00;;;;;;;-0.52;100.00;97700.64;1822822;78;22262;-84
2021/01/26 03:06:54;;;;;;;10.82;8.88;;;;;;;-0.52;100.00;97695.98;1822870;78;21144;-83
2021/01/26 03:09:32;;;;;;;9.88;8.20;;;;;;;-0.53;100.00;97685.33;1822736;78;21158;-84
2021/01/26 03:12:17;;;;;;;9.93;8.13;;;;;;;-0.54;100.00;97698.96;1822707;78;21174;-83
2021/01/26 03:15:09;;;;;;;10.85;8.55;;;;;;;-0.57;100.00;97704.53;1822735;78;21158;-82
2021/01/26 03:17:52;;;;;;;9.53;8.08;;;;;;;-0.56;100.00;97704.09;1822681;78;21360;-82
2021/01/26 03:20:28;;;;;;;10.00;8.63;;;;;;;-0.59;100.00;97709.27;1822610;78;21170;-83
2021/01/26 03:22:58;;;;;;;11.55;8.50;;;;;;;-0.59;100.00;97713.09;1822878;78;21122;-83
2021/01/26 03:25:26;;;;;;;10.35;8.18;;;;;;;-0.62;100.00;97722.89;1791314;78;21166;-83
2021/01/26 03:27:57;;;;;;;10.48;8.03;;;;;;;-0.61;100.00;97726.28;1822766;78;21150;-82
2021/01/26 03:30:30;;;;;;;9.08;7.67;;;;;;;-0.61;100.00;97718.62;1822748;78;21368;-83
2021/01/26 03:33:08;;;;;;;9.08;7.87;;;;;;;-0.62;100.00;97723.33;1822622;78;21154;-83
2021/01/26 03:35:38;;;;;;;8.88;7.53;;;;;;;-0.62;100.00;97718.22;1792537;78;21150;-84
2021/01/26 03:38:24;;;;;;;16.32;12.47;;;;;;;-0.65;100.00;97733.59;1822715;78;21174;-84
2021/01/26 03:40:53;;;;;;;9.75;7.80;;;;;;;-0.65;100.00;97733.59;1822344;78;21433;-84
2021/01/26 03:43:23;;;;;;;8.30;6.90;;;;;;;-0.66;100.00;97733.19;1822626;78;22312;-84
2021/01/26 03:46:11;;;;;;;9.53;7.78;;;;;;;-0.67;100.00;97740.44;1822666;78;21605;-84
2021/01/26 03:49:10;;;;;;;8.30;6.87;;;;;;;-0.68;100.00;97745.98;1822683;78;21100;-83
2021/01/26 03:52:07;;;;;;;8.15;6.65;;;;;;;-0.68;100.00;97745.10;1822605;78;21134;-83
2021/01/26 03:54:48;;;;;;;9.55;6.80;;;;;;;-0.71;100.00;97748.98;1822679;78;21130;-84
2021/01/26 03:57:39;;;;;;;8.50;7.15;;;;;;;-0.73;100.00;97755.39;1819227;78;22200;-83
2021/01/26 04:00:42;;;;;;;7.50;6.53;;;;;;;-0.77;100.00;97766.93;1808663;79;21098;-84
2021/01/26 04:03:47;;;;;;;8.10;6.35;;;;;;;-0.80;100.00;97766.55;1808581;79;21154;-84
2021/01/26 04:06:32;;;;;;;8.45;6.95;;;;;;;-0.81;100.00;97781.89;1808552;79;21098;-83
2021/01/26 04:09:11;;;;;;;7.83;6.90;;;;;;;-0.84;100.00;97773.39;1803402;79;21138;-83
2021/01/26 04:11:50;;;;;;;8.40;6.78;;;;;;;-0.85;100.00;97779.36;1807970;79;21329;-83
2021/01/26 04:14:27;;;;;;;7.45;6.25;;;;;;;-0.84;100.00;97784.02;1807937;79;21142;-84
2021/01/26 04:17:11;;;;;;;9.13;7.05;;;;;;;-0.84;100.00;97774.66;1807912;79;21162;-83
2021/01/26 04:19:59;;;;;;;7.92;6.62;;;;;;;-0.84;100.00;97770.84;1808006;79;21111;-83
2021/01/26 04:22:27;;;;;;;8.60;6.70;;;;;;;-0.82;100.00;97786.58;1807980;79;21138;-83
2021/01/26 04:24:55;;;;;;;8.20;6.60;;;;;;;-0.82;100.00;97777.22;1807972;79;21917;-84
2021/01/26 04:27:24;;;;;;;7.58;6.28;;;;;;;-0.82;100.00;97778.49;1807872;79;21137;-83
2021/01/26 04:29:52;;;;;;;6.87;5.90;;;;;;;-0.85;100.00;97787.02;1808009;79;21186;-84
2021/01/26 04:32:22;;;;;;;9.15;6.53;;;;;;;-0.86;100.00;97786.61;1807973;79;21594;-83
2021/01/26 04:34:49;;;;;;;7.30;6.50;;;;;;;-0.87;100.00;97798.11;1807978;79;21162;-84
2021/01/26 04:37:17;;;;;;;9.38;6.85;;;;;;;-0.89;100.00;97790.48;1807861;79;21420;-83
2021/01/26 04:39:44;;;;;;;7.87;6.40;;;;;;;-0.90;100.00;97787.52;1807861;79;21135;-84
2021/01/26 04:42:22;;;;;;;7.62;6.20;;;;;;;-0.89;100.00;97812.16;1807985;79;21166;-83
2021/01/26 04:45:10;;;;;;;8.88;6.95;;;;;;;-0.90;100.00;97805.37;1808082;79;21646;-83
2021/01/26 04:47:46;;;;;;;8.30;6.40;;;;;;;-0.89;100.00;97801.96;1807948;79;21162;-84
2021/01/26 04:50:38;;;;;;;7.58;6.40;;;;;;;-0.87;100.00;97797.67;1808069;79;21364;-83
2021/01/26 04:53:23;;;;;;;7.95;6.60;;;;;;;-0.87;100.00;97807.03;1807881;79;21139;-85
2021/01/26 04:56:21;;;;;;;8.70;6.80;;;;;;;-0.86;100.00;97804.46;1807967;79;21143;-84
2021/01/26 04:59:15;;;;;;;8.98;7.20;;;;;;;-0.86;100.00;97803.19;1774511;79;21155;-83
2021/01/26 05:02:19;;;;;;;9.03;7.22;;;;;;;-0.86;100.00;97807.02;1792035;79;21169;-83
2021/01/26 05:05:03;;;;;;;9.95;7.67;;;;;;;-0.86;100.00;97811.27;1816683;79;22253;-83
2021/01/26 05:07:55;;;;;;;10.00;7.80;;;;;;;-0.85;100.00;97809.97;1787696;79;21158;-83
2021/01/26 05:10:48;;;;;;;10.18;7.42;;;;;;;-0.84;100.00;97820.58;1785751;79;21127;-83
2021/01/26 05:13:29;;;;;;;9.83;7.47;;;;;;;-0.84;100.00;97826.96;1816539;79;21138;-85
2021/01/26 05:16:01;;;;;;;10.38;7.90;;;;;;;-0.84;100.00;97823.14;1816584;79;21110;-84
2021/01/26 05:18:39;;;;;;;10.50;8.18;;;;;;;-0.83;100.00;97826.56;1811880;79;21208;-84
2021/01/26 05:21:10;;;;;;;;;;;;;;;-0.82;100.00;97832.50;1809639;79;21189;-83
2021/01/26 05:23:41;;;;;;;10.70;8.20;;;;;;;-0.82;100.00;97831.23;1785088;79;20247;-84
2021/01/26 05:26:12;;;;;;;10.98;8.68;;;;;;;-0.83;100.00;97830.39;1816514;79;21115;-84
2021/01/26 05:28:46;;;;;;;14.63;9.65;;;;;;;-0.80;100.00;97837.14;1816566;78;21598;-84
2021/01/26 05:31:26;;;;;;;12.03;8.60;;;;;;;-0.79;100.00;97854.14;1816600;79;21360;-84
2021/01/26 05:33:44;;;;;;;11.95;9.23;;;;;;;-0.80;100.00;97854.58;1811963;79;21162;-84
2021/01/26 05:36:25;;;;;;;11.00;8.93;;;;;;;-0.80;100.00;97855.84;1816404;79;21138;-84
2021/01/26 05:38:51;;;;;;;11.22;8.70;;;;;;;-0.78;100.00;97846.89;1814743;79;26640;-84
2021/01/26 05:41:18;;;;;;;13.25;9.70;;;;;;;-0.75;100.00;97854.53;1816464;79;21142;-84
2021/01/26 05:43:49;;;;;;;12.03;8.80;;;;;;;-0.74;100.00;97854.94;1815808;79;22240;-84
2021/01/26 05:46:38;;;;;;;12.45;8.78;;;;;;;-0.73;100.00;97854.91;1816432;78;21130;-84
2021/01/26 05:49:08;;;;;;;15.48;10.80;;;;;;;-0.72;100.00;97863.41;1814658;79;21190;-84
2021/01/26 05:51:38;;;;;;;12.70;9.68;;;;;;;-0.71;100.00;97868.48;1816346;79;21149;-84
2021/01/26 05:54:13;;;;;;;12.23;9.10;;;;;;;-0.70;100.00;97865.50;1815958;79;21158;-84
2021/01/26 05:56:59;;;;;;;10.68;9.10;;;;;;;-0.69;100.00;97870.58;1816609;79;21154;-83
2021/01/26 05:59:35;;;;;;;12.37;9.40;;;;;;;-0.68;100.00;97879.08;1809388;77;21185;-84
2021/01/26 06:02:21;;;;;;;12.40;9.38;;;;;;;-0.67;100.00;97881.63;1801276;78;25698;-85
2021/01/26 06:04:50;;;;;;;12.88;9.83;;;;;;;-0.68;100.00;97881.63;1770521;79;21206;-84
2021/01/26 06:07:25;;;;;;;11.65;9.15;;;;;;;-0.69;100.00;97873.13;1813150;78;21141;-85
2021/01/26 06:09:53;;;;;;;14.10;10.00;;;;;;;-0.70;100.00;97893.56;1862585;76;21188;-86
2021/01/26 06:12:26;;;;;;;14.20;10.28;;;;;;;-0.71;100.00;97888.05;1800970;79;21215;-88
2021/01/26 06:15:03;;;;;;;16.40;10.50;;;;;;;-0.70;100.00;97874.43;1772431;80;21672;-87
2021/01/26 06:17:35;;;;;;;16.57;11.55;;;;;;;-0.69;100.00;97888.44;1768732;79;21185;-83
2021/01/26 06:20:22;;;;;;;12.78;10.10;;;;;;;-0.68;100.00;97896.53;1782388;79;21239;-86
2021/01/26 06:22:53;;;;;;;13.40;10.63;;;;;;;-0.67;100.00;97894.83;1765760;80;21205;-86
2021/01/26 06:25:33;;;;;;;14.63;10.85;;;;;;;-0.66;100.00;97888.86;1764353;80;21197;-86
2021/01/26 06:28:44;;;;;;;14.93;11.22;;;;;;;-0.66;100.00;97896.08;1747843;82;21140;-88
2021/01/26 06:31:41;;;;;;;15.30;11.03;;;;;;;-0.66;100.00;97890.13;1748979;82;21163;-89
2021/01/26 06:34:42;;;;;;;16.95;11.10;;;;;;;-0.67;100.00;97908.86;1748069;82;22009;-91
2021/01/26 06:37:45;;;;;;;14.93;10.90;;;;;;;-0.66;100.00;97911.83;1773245;80;21126;-88
2021/01/26 06:40:52;;;;;;;15.28;11.22;;;;;;;-0.67;100.00;97910.14;1784448;78;21370;-88
2021/01/26 06:43:47;;;;;;;16.77;11.20;;;;;;;-0.67;100.00;97912.25;1731577;82;21139;-88
2021/01/26 06:46:41;;;;;;;17.07;12.03;;;;;;;-0.65;100.00;97916.06;1711718;83;21217;-90
2021/01/26 06:50:06;;;;;;;17.45;12.13;;;;;;;-0.65;100.00;97916.06;1773528;80;21200;-88
2021/01/26 06:53:27;;;;;;;15.93;11.75;;;;;;;-0.64;100.00;97924.12;1779140;79;21267;-83
2021/01/26 06:56:52;;;;;;;17.00;11.08;;;;;;;-0.63;100.00;97924.53;1781644;80;21180;-88
2021/01/26 06:59:54;;;;;;;19.30;12.37;;;;;;;-0.64;100.00;97935.17;1789212;78;21223;-89
2021/01/26 07:03:04;;;;;;;17.02;11.48;;;;;;;-0.62;100.00;97937.70;1786813;78;21115;-88
2021/01/26 07:05:57;;;;;;;15.93;11.78;;;;;;;-0.61;100.00;97941.94;1803307;78;21148;-89
2021/01/26 07:09:29;;;;;;;17.92;12.13;;;;;;;-0.59;100.00;97948.73;1778870;80;21045;-88
2021/01/26 07:12:36;;;;;;;15.48;11.48;;;;;;;-0.57;100.00;97934.67;1788793;78;21145;-89
2021/01/26 07:15:40;;;;;;;16.45;12.40;;;;;;;-0.49;100.00;97943.08;1881742;75;28895;-58
2021/01/26 07:19:03;;;;;;;16.82;11.95;;;;;;;-0.52;100.00;97957.17;1825803;76;21382;-58
2021/01/26 07:21:55;;;;;;;16.15;11.85;;;;;;;-0.47;100.00;97960.49;1871653;76;21364;-58
2021/01/26 07:24:43;;;;;;;19.07;12.63;;;;;;;-0.45;100.00;97965.17;1858258;76;22119;-58
2021/01/26 07:27:41;;;;;;;17.77;12.60;;;;;;;-0.44;100.00;97954.09;1831813;77;21076;-58
2021/01/26 07:30:43;;;;;;;18.12;12.18;;;;;;;-0.44;100.00;97964.30;1827227;78;21572;-57
2021/01/26 07:33:22;;;;;;;16.70;11.70;;;;;;;-0.45;100.00;97956.67;1832162;77;21041;-57
2021/01/26 07:36:18;;;;;;;18.92;13.35;;;;;;;-0.44;100.00;97971.96;1841878;77;22181;-57
2021/01/26 07:39:00;;;;;;;20.85;12.85;;;;;;;-0.42;100.00;97977.05;1825610;77;21179;-57
2021/01/26 07:41:52;;;;;;;20.82;13.03;;;;;;;-0.40;100.00;97986.36;1836671;77;21155;-58
2021/01/26 07:44:37;;;;;;;18.67;12.80;;;;;;;-0.39;100.00;97978.27;1843120;77;21183;-58
2021/01/26 07:47:26;;;;;;;19.12;12.88;;;;;;;-0.36;100.00;97989.30;1836731;77;21104;-57
2021/01/26 07:50:14;;;;;;;15.95;11.68;;;;;;;-0.33;99.93;97999.91;1774225;80;21316;-57
2021/01/26 07:52:46;;;;;;;21.25;13.93;;;;;;;-0.32;99.90;97988.39;1766180;80;21165;-57
2021/01/26 07:55:41;;;;;;;22.42;15.85;;;;;;;-0.30;99.85;98003.28;1790686;79;21092;-57
2021/01/26 07:58:12;;;;;;;20.50;14.43;;;;;;;-0.27;99.66;98006.66;1771983;80;21153;-58
2021/01/26 08:00:47;;;;;;;19.15;12.78;;;;;;;-0.26;99.45;97993.02;1791103;78;21221;-59
2021/01/26 08:03:23;;;;;;;18.50;13.15;;;;;;;-0.23;99.42;98010.84;1798289;78;22151;-60
2021/01/26 08:05:56;;;;;;;16.87;13.00;;;;;;;-0.21;99.16;98019.36;1729670;80;21099;-62
2021/01/26 08:08:36;;;;;;;19.52;13.35;;;;;;;-0.20;99.10;98014.22;1762672;80;21120;-60
2021/01/26 08:11:12;;;;;;;16.65;12.40;;;;;;;-0.21;98.83;98012.53;1774050;80;21671;-59
2021/01/26 08:13:55;;;;;;;14.98;11.85;;;;;;;-0.21;98.67;98015.09;1747717;80;21176;-59
2021/01/26 08:16:34;;;;;;;16.17;12.55;;;;;;;-0.19;98.82;98019.74;1767509;79;21203;-60
2021/01/26 08:19:05;;;;;;;17.52;12.63;;;;;;;-0.16;98.75;98023.95;1748627;80;21136;-61
2021/01/26 08:21:44;;;;;;;18.45;12.50;;;;;;;-0.15;98.72;98022.69;1813628;79;21621;-61
2021/01/26 08:24:30;;;;;;;16.57;12.58;;;;;;;-0.15;98.40;98038.01;1781553;80;21576;-61
2021/01/26 08:27:41;;;;;;;18.60;12.73;;;;;;;-0.14;98.66;98028.20;1774892;80;21927;-60
2021/01/26 08:30:13;;;;;;;16.60;12.63;;;;;;;-0.13;98.33;98022.23;1731934;82;21206;-60
2021/01/26 08:33:18;;;;;;;16.30;12.65;;;;;;;-0.12;98.17;98042.23;1866862;75;28529;-61
2021/01/26 08:36:11;;;;;;;19.25;13.28;;;;;;;-0.16;98.37;98046.51;1834514;76;21584;-61
2021/01/26 08:39:16;;;;;;;16.37;12.70;;;;;;;-0.13;98.34;98046.92;1840621;76;22162;-61
2021/01/26 08:41:52;;;;;;;16.65;11.97;;;;;;;-0.08;98.11;98057.91;1815618;77;21121;-61
2021/01/26 08:44:25;;;;;;;19.75;13.40;;;;;;;-0.06;98.04;98058.77;1781762;80;21097;-61
2021/01/26 08:46:54;;;;;;;17.85;12.47;;;;;;;-0.01;98.08;98069.31;1789750;79;21178;-62
2021/01/26 08:49:32;;;;;;;16.82;12.73;;;;;;;0.03;97.56;98066.30;1740780;78;21237;-60
2021/01/26 08:52:25;;;;;;;17.95;13.55;;;;;;;0.07;97.50;98067.94;1798606;78;21488;-61
2021/01/26 08:54:55;;;;;;;20.45;14.60;;;;;;;0.12;97.44;98071.73;1797570;78;21783;-61
2021/01/26 08:57:35;;;;;;;23.95;17.98;;;;;;;0.15;96.93;98064.89;1780693;78;21113;-61
2021/01/26 09:00:41;;;;;;;21.23;14.50;;;;;;;0.14;96.65;98068.28;1772798;79;21187;-60
2021/01/26 09:03:32;;;;;;;17.25;13.48;;;;;;;0.13;96.65;98067.88;1787894;79;21379;-61
2021/01/26 09:06:08;;;;;;;16.55;12.70;;;;;;;0.13;96.60;98080.65;1779661;79;21388;-61
2021/01/26 09:08:45;;;;;;;18.87;13.80;;;;;;;0.17;96.51;98086.15;1764361;79;21163;-61
2021/01/26 09:11:23;;;;;;;17.95;13.43;;;;;;;0.19;96.46;98092.08;1779426;79;21163;-61
2021/01/26 09:13:53;;;;;;;19.60;14.23;;;;;;;0.22;96.32;98090.75;1772711;79;21189;-62
2021/01/26 09:16:24;;;;;;;17.67;13.50;;;;;;;0.26;96.34;98080.91;1782316;79;21204;-63
2021/01/26 09:18:59;;;;;;;15.83;12.37;;;;;;;0.31;95.87;98090.25;1774501;79;21205;-63
2021/01/26 09:21:31;;;;;;;17.87;13.53;;;;;;;0.35;95.98;98102.11;1778645;79;21215;-62
2021/01/26 09:23:59;;;;;;;16.40;12.63;;;;;;;0.38;95.51;98105.89;1768761;79;21587;-63
2021/01/26 09:26:28;;;;;;;19.15;14.65;;;;;;;0.39;95.19;98097.38;1778587;79;21143;-62
2021/01/26 09:29:04;;;;;;;20.90;14.47;;;;;;;0.37;94.99;98107.60;1781275;79;22447;-62
2021/01/26 09:31:32;;;;;;;18.75;14.05;;;;;;;0.38;95.02;98111.88;1794720;79;21229;-63
2021/01/26 09:34:04;;;;;;;17.25;13.03;;;;;;;0.39;94.91;98101.22;1775412;80;22137;-62
2021/01/26 09:36:34;;;;;;;17.15;13.13;;;;;;;0.40;94.64;98112.70;1765474;80;21549;-64
2021/01/26 09:39:06;;;;;;;16.15;13.43;;;;;;;0.41;94.54;98115.66;1776187;80;21590;-64
2021/01/26 09:41:35;;;;;;;16.73;13.55;;;;;;;0.48;94.94;98115.99;1767265;79;21260;-63
2021/01/26 09:44:12;;;;;;;17.98;13.10;;;;;;;0.55;94.67;98125.71;1779989;79;21492;-65
2021/01/26 09:46:49;;;;;;;16.52;12.65;;;;;;;0.59;94.26;98127.78;1774347;79;21674;-62
2021/01/26 09:49:28;;;;;;;16.52;12.37;;;;;;;0.56;93.47;98122.28;1769080;79;21325;-63
2021/01/26 09:52:02;;;;;;;22.22;13.50;;;;;;;0.54;93.76;98122.75;1767113;79;21106;-61
2021/01/26 09:54:33;;;;;;;15.25;12.33;;;;;;;0.54;93.69;98130.42;1769891;79;21683;-62
2021/01/26 09:57:03;;;;;;;17.00;13.28;;;;;;;0.53;93.24;98132.56;1772515;79;21255;-62
2021/01/26 09:59:34;;;;;;;18.62;13.03;;;;;;;0.49;93.65;98132.18;1774316;79;21156;-62
2021/01/26 10:02:10;;;;;;;17.37;12.37;;;;;;;0.46;93.73;98145.02;1775282;78;21199;-63
2021/01/26 10:04:40;;;;;;;13.72;11.88;;;;;;;0.43;93.84;98133.53;1788058;79;21210;-64
2021/01/26 10:07:14;;;;;;;16.52;12.18;;;;;;;0.42;94.12;98154.84;1788477;79;21176;-63
2021/01/26 10:09:43;;;;;;;16.82;12.10;;;;;;;0.44;94.05;98149.28;1784042;78;21935;-63
2021/01/26 10:12:28;;;;;;;16.87;12.93;;;;;;;0.44;94.06;98149.28;1786342;78;21266;-63
2021/01/26 10:15:19;;;;;;;16.45;12.63;;;;;;;0.44;94.51;98145.01;1796381;78;21549;-62
2021/01/26 10:17:58;;;;;;;17.35;13.88;;;;;;;0.45;94.40;98142.02;1791258;78;21192;-62
2021/01/26 10:20:30;;;;;;;19.23;14.07;;;;;;;0.42;94.42;98142.91;1809841;78;21084;-63
2021/01/26 10:23:09;;;;;;;17.52;13.62;;;;;;;0.38;94.56;98151.91;1737157;79;22238;-63
2021/01/26 10:25:40;;;;;;;21.45;15.08;;;;;;;0.38;94.26;98150.63;1764288;78;21667;-63
2021/01/26 10:28:16;;;;;;;19.87;14.33;;;;;;;0.37;94.08;98146.38;1769873;79;21116;-63
2021/01/26 10:30:46;;;;;;;19.48;14.47;;;;;;;0.36;94.30;98153.64;1757871;80;21123;-62
2021/01/26 10:33:37;;;;;;;20.52;15.18;;;;;;;0.37;94.23;98158.73;1763227;80;21210;-65
2021/01/26 10:36:32;;;;;;;19.02;13.80;;;;;;;0.41;94.28;98165.95;1783157;79;22115;-65
2021/01/26 10:39:24;;;;;;;17.15;12.78;;;;;;;0.40;93.99;98152.75;1774002;79;21190;-64
2021/01/26 10:42:09;;;;;;;17.00;12.88;;;;;;;0.42;93.92;98156.13;1768994;80;21545;-66
2021/01/26 10:44:55;;;;;;;16.67;13.50;;;;;;;0.49;94.01;98160.30;1744358;79;21130;-65
2021/01/26 10:47:34;;;;;;;19.02;13.98;;;;;;;0.57;93.32;98166.59;1760302;80;21665;-64
2021/01/26 10:50:13;;;;;;;24.27;17.87;;;;;;;0.60;92.96;98184.02;1768431;79;21672;-65
2021/01/26 10:52:49;;;;;;;22.07;14.75;;;;;;;0.60;92.52;98181.89;1769296;79;21404;-65
2021/01/26 10:55:20;;;;;;;25.23;16.42;;;;;;;0.58;91.94;98167.85;1779067;79;21057;-62
2021/01/26 10:57:52;;;;;;;29.65;18.50;;;;;;;0.56;91.90;98179.81;1768962;79;21175;-64
2021/01/26 11:00:23;;;;;;;36.60;21.55;;;;;;;0.53;91.67;98170.92;1767277;79;21140;-64
2021/01/26 11:02:52;;;;;;;17.50;12.65;;;;;;;0.54;91.75;98171.33;1760550;79;21352;-64
2021/01/26 11:05:23;;;;;;;18.90;12.78;;;;;;;0.57;91.14;98186.63;1764958;79;21144;-63
2021/01/26 11:07:52;;;;;;;17.85;12.23;;;;;;;0.57;91.04;98186.63;1777333;79;21638;-63
2021/01/26 11:10:23;;;;;;;16.93;11.63;;;;;;;0.60;90.42;98189.13;1765800;79;21219;-64
2021/01/26 11:12:52;;;;;;;16.45;12.43;;;;;;;0.65;89.68;98192.48;1775164;79;21100;-62
2021/01/26 11:15:26;;;;;;;17.17;12.03;;;;;;;0.70;89.12;98203.95;1775780;79;22214;-64
2021/01/26 11:17:52;;;;;;;17.57;11.50;;;;;;;0.74;88.71;98182.13;1772266;79;21207;-63
2021/01/26 11:20:26;;;;;;;16.55;11.08;;;;;;;0.78;88.30;98197.86;1768443;80;21156;-63
2021/01/26 11:22:55;;;;;;;20.52;12.47;;;;;;;0.82;87.86;98204.61;1767803;80;21223;-63
2021/01/26 11:25:25;;;;;;;18.48;12.80;;;;;;;0.80;87.58;98199.95;1768729;79;21184;-62
2021/01/26 11:27:54;;;;;;;18.37;11.63;;;;;;;0.80;87.46;98214.03;1767022;80;22275;-62
2021/01/26 11:30:25;;;;;;;19.73;13.45;;;;;;;0.79;86.87;98201.27;1767444;80;21207;-65
2021/01/26 11:32:54;;;;;;;17.17;11.28;;;;;;;0.77;87.19;98196.17;1767202;79;21313;-64
2021/01/26 11:35:26;;;;;;;18.82;12.35;;;;;;;0.78;86.86;98213.64;1767533;80;21251;-63
2021/01/26 11:37:56;;;;;;;18.07;13.40;;;;;;;0.78;87.21;98213.21;1770333;80;21171;-64
2021/01/26 11:40:26;;;;;;;20.70;13.53;;;;;;;0.81;86.95;98211.03;1772590;79;21260;-62
2021/01/26 11:42:54;;;;;;;17.15;12.80;;;;;;;0.80;86.91;98208.91;1779212;79;21506;-62
2021/01/26 11:45:28;;;;;;;18.85;12.45;;;;;;;0.79;86.80;98214.90;1777398;79;21116;-62
2021/01/26 11:47:58;;;;;;;17.40;12.40;;;;;;;0.77;86.52;98208.12;1784170;79;21159;-62
2021/01/26 11:50:28;;;;;;;18.82;12.47;;;;;;;0.76;86.54;98216.23;1769269;80;21277;-62
2021/01/26 11:52:57;;;;;;;20.32;12.47;;;;;;;0.79;86.93;98225.56;1767792;79;22118;-63
2021/01/26 11:55:28;;;;;;;17.30;12.43;;;;;;;0.82;86.58;98227.64;1767384;79;21091;-63
2021/01/26 11:57:57;;;;;;;18.37;12.28;;;;;;;0.81;86.33;98214.88;1764512;79;21227;-62
2021/01/26 12:00:31;;;;;;;18.35;13.20;;;;;;;0.79;85.83;98221.30;1773231;79;21111;-62
2021/01/26 12:03:00;;;;;;;18.30;13.20;;;;;;;0.78;86.05;98223.44;1768468;80;21620;-64
2021/01/26 12:05:32;;;;;;;16.27;12.63;;;;;;;0.78;86.26;98228.56;1772404;79;21335;-62
2021/01/26 12:08:01;;;;;;;18.20;13.53;;;;;;;0.78;86.20;98224.72;1764151;79;21223;-61
2021/01/26 12:10:31;;;;;;;23.87;15.53;;;;;;;0.78;86.35;98233.67;1771961;79;21498;-62
2021/01/26 12:13:00;;;;;;;22.87;15.30;;;;;;;0.76;86.56;98234.13;1767648;79;21623;-62
2021/01/26 12:15:32;;;;;;;21.00;14.63;;;;;;;0.79;86.67;98243.47;1749944;79;21200;-63
2021/01/26 12:18:02;;;;;;;23.42;16.35;;;;;;;0.78;86.46;98237.52;1763633;79;21310;-62